Time;durP1;ratioP1;P1;durP2;ratioP2;P2;SDS_P1;SDS_P2;PMS_P1;PMS_P2;Temp;Humidity;BMP_temperature;BMP_pressure;BME280_temperature;BME280_humidity;BME280_pressure;Samples;Min_cycle;Max_cycle;Signal;HPM_P1;HPM_P2
2021/11/10 00:01:22;;;;;;;18.45;5.03;;;10.30;99.90;;;;;;6241026;22;20008;-61
2021/11/10 00:03:48;;;;;;;26.02;5.47;;;10.40;99.90;;;;;;6242216;22;20004;-62
2021/11/10 00:06:13;;;;;;;18.35;5.00;;;10.30;99.90;;;;;;6241712;22;20014;-63
2021/11/10 00:08:39;;;;;;;23.55;4.82;;;10.30;99.90;;;;;;6241311;22;20081;-62
2021/11/10 00:11:05;;;;;;;22.02;4.65;;;10.30;99.90;;;;;;6240194;23;20008;-62
2021/11/10 00:13:30;;;;;;;20.10;6.10;;;10.30;99.90;;;;;;6240912;22;20008;-62
2021/11/10 00:15:56;;;;;;;18.33;5.57;;;10.30;99.90;;;;;;6242281;22;20000;-63
2021/11/10 00:18:22;;;;;;;17.80;5.07;;;10.30;99.90;;;;;;6241010;22;20000;-64
2021/11/10 00:20:48;;;;;;;26.13;5.45;;;10.20;99.90;;;;;;6241732;22;20049;-61
2021/11/10 00:23:14;;;;;;;23.13;6.00;;;10.30;99.90;;;;;;6239374;22;20099;-62
2021/11/10 00:25:40;;;;;;;18.60;5.40;;;10.20;99.90;;;;;;6240734;22;20012;-62
2021/11/10 00:28:06;;;;;;;20.67;5.75;;;10.20;99.90;;;;;;6239854;23;20101;-61
2021/11/10 00:30:32;;;;;;;19.95;4.47;;;10.30;99.90;;;;;;6240572;22;20008;-63
2021/11/10 00:32:58;;;;;;;19.77;4.25;;;10.30;99.90;;;;;;6241663;22;20466;-63
2021/11/10 00:35:23;;;;;;;17.95;6.18;;;10.20;99.90;;;;;;6240821;22;20011;-63
2021/11/10 00:37:49;;;;;;;21.00;4.93;;;10.10;99.90;;;;;;6241916;22;20008;-62
2021/11/10 00:40:15;;;;;;;20.85;5.38;;;10.20;99.90;;;;;;6241460;22;20008;-62
2021/11/10 00:42:41;;;;;;;16.90;5.55;;;10.20;99.90;;;;;;6240673;22;20015;-62
2021/11/10 00:45:08;;;;;;;20.25;5.22;;;10.20;99.90;;;;;;6241831;22;20529;-62
2021/11/10 00:47:34;;;;;;;16.63;5.38;;;10.20;99.90;;;;;;6240839;22;20016;-62
2021/11/10 00:50:01;;;;;;;12.80;4.82;;;10.30;99.90;;;;;;6241492;22;20527;-62
2021/11/10 00:52:27;;;;;;;19.17;5.10;;;10.20;99.90;;;;;;6240281;22;20035;-62
2021/11/10 00:54:53;;;;;;;20.65;5.50;;;10.20;99.90;;;;;;6241838;22;20430;-63
2021/11/10 00:57:19;;;;;;;18.58;5.22;;;10.20;99.90;;;;;;6240653;22;20008;-63
2021/11/10 00:59:45;;;;;;;15.00;4.88;;;10.20;99.90;;;;;;6241683;22;20012;-63
2021/11/10 01:02:11;;;;;;;19.88;4.47;;;10.20;99.90;;;;;;6241511;22;20008;-62
2021/11/10 01:04:36;;;;;;;16.15;4.65;;;10.20;99.90;;;;;;6240418;22;20058;-62
2021/11/10 01:07:03;;;;;;;20.73;5.82;;;10.20;99.90;;;;;;6241685;22;20496;-63
2021/11/10 01:09:30;;;;;;;25.08;5.20;;;10.20;99.90;;;;;;6240115;22;20446;-62
2021/11/10 01:11:56;;;;;;;17.08;4.22;;;10.20;99.90;;;;;;6241530;22;20125;-63
2021/11/10 01:14:22;;;;;;;14.70;4.75;;;10.20;99.90;;;;;;6240291;22;20032;-62
2021/11/10 01:16:48;;;;;;;15.82;4.65;;;10.20;99.90;;;;;;6241005;22;20008;-62
2021/11/10 01:19:14;;;;;;;22.75;5.90;;;10.20;99.90;;;;;;6240651;22;20015;-63
2021/11/10 01:21:39;;;;;;;17.10;4.65;;;10.20;99.90;;;;;;6240769;22;20014;-63
2021/11/10 01:24:05;;;;;;;20.67;4.85;;;10.20;99.90;;;;;;6241129;22;20091;-63
2021/11/10 01:26:31;;;;;;;19.73;4.95;;;10.10;99.90;;;;;;6238227;22;20031;-62
2021/11/10 01:28:57;;;;;;;21.23;5.72;;;10.20;99.90;;;;;;6241266;22;20015;-63
2021/11/10 01:31:22;;;;;;;14.65;4.53;;;10.10;99.90;;;;;;6238372;22;20043;-62
2021/11/10 01:33:48;;;;;;;29.65;5.78;;;10.10;99.90;;;;;;6240926;22;20004;-62
2021/11/10 01:36:14;;;;;;;22.02;5.03;;;10.10;99.90;;;;;;6240835;22;20012;-63
2021/11/10 01:38:39;;;;;;;15.40;4.47;;;10.00;99.90;;;;;;6240438;22;20062;-62
2021/11/10 01:41:05;;;;;;;20.27;5.03;;;10.00;99.90;;;;;;6241265;22;20084;-62
2021/11/10 01:43:32;;;;;;;13.60;4.68;;;10.00;99.90;;;;;;6239831;22;20016;-62
2021/11/10 01:45:58;;;;;;;20.75;5.70;;;10.00;99.90;;;;;;6241162;22;20012;-62
2021/11/10 01:48:24;;;;;;;20.30;4.78;;;10.00;99.90;;;;;;6238057;22;20087;-63
2021/11/10 01:50:50;;;;;;;20.48;6.32;;;10.00;99.90;;;;;;6240866;22;20015;-63
2021/11/10 01:53:16;;;;;;;20.95;6.05;;;9.90;99.90;;;;;;6240329;22;20438;-63
2021/11/10 01:55:43;;;;;;;22.65;5.88;;;9.90;99.90;;;;;;6240420;22;20011;-62
2021/11/10 01:58:08;;;;;;;18.33;5.00;;;9.80;99.90;;;;;;6241046;22;20032;-62
2021/11/10 02:00:38;;;;;;;15.27;4.85;;;9.90;99.90;;;;;;6239471;22;20062;-62
2021/11/10 02:03:05;;;;;;;19.52;5.45;;;9.80;99.90;;;;;;6240714;22;20047;-61
2021/11/10 02:05:31;;;;;;;20.60;5.82;;;9.70;99.90;;;;;;6239900;22;20351;-63
2021/11/10 02:07:57;;;;;;;19.58;5.53;;;9.70;99.90;;;;;;6241239;22;20008;-62
2021/11/10 02:10:25;;;;;;;18.90;5.05;;;9.60;99.90;;;;;;6239994;22;20000;-63
2021/11/10 02:12:52;;;;;;;16.65;6.07;;;9.70;99.90;;;;;;6241060;22;20020;-62
2021/11/10 02:15:19;;;;;;;16.48;5.03;;;9.60;99.90;;;;;;6238615;22;20019;-63
2021/11/10 02:17:54;;;;;;;17.30;6.15;;;9.50;99.90;;;;;;6240264;22;20012;-62
2021/11/10 02:20:20;;;;;;;28.33;5.90;;;9.40;99.90;;;;;;6238674;22;20011;-63
2021/11/10 02:22:49;;;;;;;23.20;5.57;;;9.40;99.90;;;;;;6240833;22;20009;-63
2021/11/10 02:25:14;;;;;;;18.77;6.13;;;9.40;99.90;;;;;;6240207;22;20020;-62
2021/11/10 02:27:41;;;;;;;20.48;5.88;;;9.40;99.90;;;;;;6239977;22;20087;-63
2021/11/10 02:30:07;;;;;;;19.90;6.03;;;9.50;99.90;;;;;;6240587;22;20046;-62
2021/11/10 02:32:34;;;;;;;18.38;5.30;;;9.50;99.90;;;;;;6239182;22;20023;-62
2021/11/10 02:34:59;;;;;;;23.17;6.05;;;9.50;99.90;;;;;;6240787;22;20759;-63
2021/11/10 02:37:25;;;;;;;20.15;5.18;;;9.60;99.90;;;;;;6239301;22;20091;-62
2021/11/10 02:39:52;;;;;;;19.90;5.70;;;9.60;99.90;;;;;;6240502;22;20011;-62
2021/11/10 02:42:20;;;;;;;27.65;6.30;;;9.60;99.90;;;;;;6240046;22;20082;-64
2021/11/10 02:44:51;;;;;;;23.20;6.55;;;9.60;99.90;;;;;;6238499;23;20091;-62
2021/11/10 02:47:17;;;;;;;21.08;5.25;;;9.70;99.90;;;;;;6240343;22;20409;-62
2021/11/10 02:49:44;;;;;;;18.70;6.35;;;9.70;99.90;;;;;;6239657;22;20032;-62
2021/11/10 02:52:13;;;;;;;17.60;5.28;;;9.60;99.90;;;;;;6240232;22;20065;-62
2021/11/10 02:54:45;;;;;;;20.35;6.45;;;9.60;99.90;;;;;;6237608;22;20467;-62
2021/11/10 02:57:10;;;;;;;18.98;6.38;;;9.60;99.90;;;;;;6238561;23;20504;-62
2021/11/10 02:59:37;;;;;;;15.45;5.03;;;9.60;99.90;;;;;;6237412;22;20004;-63
2021/11/10 03:02:04;;;;;;;22.58;5.90;;;9.60;99.90;;;;;;6240319;22;20015;-62
2021/11/10 03:04:45;;;;;;;18.13;6.05;;;9.60;99.90;;;;;;6239808;22;20012;-63
2021/11/10 03:07:11;;;;;;;21.98;6.15;;;9.50;99.90;;;;;;6238897;23;20619;-63
2021/11/10 03:09:37;;;;;;;25.20;5.75;;;9.60;99.90;;;;;;6239292;22;20024;-63
2021/11/10 03:12:05;;;;;;;17.10;5.60;;;9.50;99.90;;;;;;6240254;22;20900;-63
2021/11/10 03:14:33;;;;;;;22.88;6.72;;;9.50;99.90;;;;;;6239417;22;20008;-63
2021/11/10 03:17:00;;;;;;;21.88;6.20;;;9.60;99.90;;;;;;6240392;22;20358;-63
2021/11/10 03:19:26;;;;;;;17.05;5.20;;;9.50;99.90;;;;;;6239035;22;20008;-63
2021/11/10 03:21:52;;;;;;;19.67;6.32;;;9.50;99.90;;;;;;6239641;22;20358;-62
2021/11/10 03:24:18;;;;;;;21.63;6.22;;;9.40;99.90;;;;;;6239350;22;20115;-62
2021/11/10 03:26:44;;;;;;;22.23;5.45;;;9.50;99.90;;;;;;6240044;22;20019;-62
2021/11/10 03:29:10;;;;;;;22.42;5.53;;;9.40;99.90;;;;;;6237371;22;20008;-62
2021/11/10 03:31:38;;;;;;;32.75;6.72;;;9.40;99.90;;;;;;6237720;22;20012;-62
2021/11/10 03:34:06;;;;;;;19.48;5.40;;;9.40;99.90;;;;;;6241283;22;20446;-63
2021/11/10 03:36:33;;;;;;;23.90;6.60;;;9.40;99.90;;;;;;6241149;22;20058;-62
2021/11/10 03:38:59;;;;;;;18.30;5.85;;;9.40;99.90;;;;;;6242266;22;20354;-63
2021/11/10 03:41:25;;;;;;;18.23;5.72;;;9.50;99.90;;;;;;6241044;22;20015;-62
2021/11/10 03:43:51;;;;;;;20.02;6.18;;;9.40;99.90;;;;;;6242258;22;20000;-62
2021/11/10 03:46:18;;;;;;;21.27;6.32;;;9.40;99.90;;;;;;6241746;22;20004;-63
2021/11/10 03:48:44;;;;;;;16.73;5.60;;;9.40;99.90;;;;;;6241812;22;20012;-62
2021/11/10 03:51:10;;;;;;;18.73;5.82;;;9.40;99.90;;;;;;6241888;22;20012;-63
2021/11/10 03:53:36;;;;;;;22.80;6.95;;;9.40;99.90;;;;;;6239201;22;20159;-63
2021/11/10 03:56:02;;;;;;;22.38;6.10;;;9.40;99.90;;;;;;6241234;22;20031;-62
2021/11/10 03:58:27;;;;;;;14.65;5.15;;;9.40;99.90;;;;;;6239924;22;20458;-62
2021/11/10 04:00:53;;;;;;;20.42;5.43;;;9.40;99.90;;;;;;6240146;22;20008;-64
2021/11/10 04:03:19;;;;;;;21.95;6.45;;;9.40;99.90;;;;;;6241123;22;20009;-67
2021/11/10 04:05:44;;;;;;;26.10;6.18;;;9.50;99.90;;;;;;6241851;22;20007;-62
2021/11/10 04:08:10;;;;;;;22.92;6.95;;;9.50;99.90;;;;;;6242161;22;20115;-63
2021/11/10 04:10:37;;;;;;;23.02;6.18;;;9.40;99.90;;;;;;6241093;22;20433;-63
2021/11/10 04:13:04;;;;;;;22.30;7.85;;;9.40;99.90;;;;;;6241689;22;20098;-62
2021/11/10 04:15:30;;;;;;;27.30;6.72;;;9.40;99.90;;;;;;6240621;22;20016;-62
2021/11/10 04:17:56;;;;;;;17.48;5.65;;;9.40;99.90;;;;;;6241952;22;20012;-63
2021/11/10 04:20:21;;;;;;;21.15;5.38;;;9.40;99.90;;;;;;6240693;22;20005;-63
2021/11/10 04:22:47;;;;;;;21.85;5.80;;;9.40;99.90;;;;;;6239787;23;20016;-62
2021/11/10 04:25:12;;;;;;;22.52;6.70;;;9.30;99.90;;;;;;6241539;22;20023;-61
2021/11/10 04:27:38;;;;;;;19.35;5.53;;;9.30;99.90;;;;;;6240987;22;20010;-64
2021/11/10 04:30:05;;;;;;;25.17;7.03;;;9.20;99.90;;;;;;6241866;22;20005;-62
2021/11/10 04:32:31;;;;;;;27.38;5.63;;;9.30;99.90;;;;;;6240085;22;20072;-62
2021/11/10 04:34:56;;;;;;;15.88;6.10;;;9.30;99.90;;;;;;6241710;22;20521;-63
2021/11/10 04:37:22;;;;;;;22.77;5.10;;;9.30;99.90;;;;;;6240579;22;20078;-63
2021/11/10 04:39:48;;;;;;;17.65;6.32;;;9.30;99.90;;;;;;6241930;22;20461;-63
2021/11/10 04:42:14;;;;;;;27.58;5.65;;;9.30;99.90;;;;;;6241610;22;20008;-62
2021/11/10 04:44:39;;;;;;;24.33;6.85;;;9.30;99.90;;;;;;6240739;22;20016;-63
2021/11/10 04:47:05;;;;;;;12.68;5.00;;;9.30;99.90;;;;;;6241564;22;20091;-62
2021/11/10 04:49:31;;;;;;;26.30;5.85;;;9.30;99.90;;;;;;6240521;22;20062;-64
2021/11/10 04:51:58;;;;;;;19.98;5.82;;;9.20;99.90;;;;;;6241598;22;20020;-63
2021/11/10 04:54:30;;;;;;;26.05;6.13;;;9.20;99.90;;;;;;6240438;22;20446;-61
2021/11/10 04:56:59;;;;;;;21.77;6.18;;;9.20;99.90;;;;;;6241826;22;20035;-62
2021/11/10 04:59:24;;;;;;;24.48;6.57;;;9.20;99.90;;;;;;6240259;22;20342;-63
2021/11/10 05:04:45;;;;;;;17.73;5.50;;;9.10;99.90;;;;;;6213576;22;20019;-62
2021/11/10 05:07:12;;;;;;;18.95;6.10;;;9.10;99.90;;;;;;6241571;22;20008;-61
2021/11/10 05:09:38;;;;;;;17.70;5.50;;;9.10;99.90;;;;;;6240719;22;20015;-63
2021/11/10 05:12:04;;;;;;;18.23;5.60;;;9.10;99.90;;;;;;6239377;23;20095;-62
2021/11/10 05:14:30;;;;;;;22.63;5.25;;;9.10;99.90;;;;;;6240723;22;20015;-62
2021/11/10 05:16:56;;;;;;;18.65;5.30;;;9.10;99.90;;;;;;6241273;22;20100;-62
2021/11/10 05:19:21;;;;;;;20.30;6.18;;;9.20;99.90;;;;;;6240119;22;20016;-62
2021/11/10 05:21:47;;;;;;;23.98;5.90;;;9.10;99.90;;;;;;6241264;22;20012;-63
2021/11/10 05:24:13;;;;;;;24.30;5.80;;;9.20;99.90;;;;;;6241208;22;20004;-62
2021/11/10 05:26:39;;;;;;;15.05;5.13;;;9.10;99.90;;;;;;6240440;22;20023;-62
2021/11/10 05:29:06;;;;;;;25.50;6.28;;;9.10;99.90;;;;;;6239066;22;20065;-63
2021/11/10 05:31:32;;;;;;;14.00;5.07;;;9.10;99.90;;;;;;6237644;22;20016;-62
2021/11/10 05:33:58;;;;;;;23.05;5.65;;;9.10;99.90;;;;;;6240891;22;20502;-62
2021/11/10 05:36:23;;;;;;;22.35;5.47;;;9.10;99.90;;;;;;6240222;22;20011;-62
2021/11/10 05:38:49;;;;;;;22.42;5.05;;;9.10;99.90;;;;;;6236834;22;20039;-64
2021/11/10 05:41:15;;;;;;;19.33;5.80;;;9.00;99.90;;;;;;6240706;22;20012;-65
2021/11/10 05:43:41;;;;;;;21.65;5.43;;;9.00;99.90;;;;;;6240406;22;20019;-62
2021/11/10 05:46:07;;;;;;;20.60;5.28;;;9.00;99.90;;;;;;6240880;22;20012;-62
2021/11/10 05:48:32;;;;;;;24.50;6.20;;;9.00;99.90;;;;;;6239876;22;20035;-63
2021/11/10 05:50:58;;;;;;;19.00;5.07;;;9.00;99.90;;;;;;6240907;22;20008;-62
2021/11/10 05:53:24;;;;;;;23.30;5.47;;;9.00;99.90;;;;;;6238394;22;19996;-63
2021/11/10 05:55:55;;;;;;;21.52;4.95;;;8.90;99.90;;;;;;6238974;23;20006;-62
2021/11/10 05:58:23;;;;;;;19.38;5.75;;;8.90;99.90;;;;;;6238874;22;20022;-62
2021/11/10 06:00:50;;;;;;;20.67;5.43;;;8.80;99.90;;;;;;6235310;22;20346;-62
2021/11/10 06:03:16;;;;;;;18.88;6.57;;;8.80;99.90;;;;;;6236863;22;20034;-63
2021/11/10 06:05:41;;;;;;;22.42;5.72;;;8.90;99.90;;;;;;6236634;22;20001;-62
2021/11/10 06:08:07;;;;;;;19.63;5.20;;;8.90;99.90;;;;;;6237441;22;20087;-62
2021/11/10 06:10:33;;;;;;;16.50;5.13;;;8.90;99.90;;;;;;6236962;22;20004;-63
2021/11/10 06:12:59;;;;;;;22.75;6.72;;;8.90;99.90;;;;;;6235623;23;20422;-62
2021/11/10 06:15:24;;;;;;;15.25;5.53;;;8.90;99.90;;;;;;6236619;22;20062;-63
2021/11/10 06:17:50;;;;;;;22.55;6.75;;;8.90;99.90;;;;;;6237953;22;20016;-62
2021/11/10 06:20:16;;;;;;;24.60;5.88;;;8.80;99.90;;;;;;6237164;22;20062;-62
2021/11/10 06:22:43;;;;;;;18.10;5.32;;;8.80;99.90;;;;;;6237151;22;20016;-63
2021/11/10 06:25:09;;;;;;;19.73;5.40;;;8.80;99.90;;;;;;6235802;23;20020;-62
2021/11/10 06:27:35;;;;;;;17.75;5.55;;;8.90;99.90;;;;;;6235574;22;20031;-63
2021/11/10 06:30:01;;;;;;;21.60;5.10;;;8.80;99.90;;;;;;6237917;22;20465;-63
2021/11/10 06:32:27;;;;;;;21.30;5.32;;;8.80;99.90;;;;;;6236843;22;20016;-62
2021/11/10 06:34:52;;;;;;;15.98;5.15;;;8.90;99.90;;;;;;6237796;22;20708;-62
2021/11/10 06:37:18;;;;;;;25.77;6.35;;;8.80;99.90;;;;;;6237020;22;20422;-63
2021/11/10 06:39:44;;;;;;;21.77;5.95;;;8.80;99.90;;;;;;6237188;22;20016;-63
2021/11/10 06:42:09;;;;;;;22.60;5.38;;;8.80;99.90;;;;;;6237707;22;20107;-62
2021/11/10 06:44:35;;;;;;;15.77;6.00;;;8.80;99.90;;;;;;6236877;22;20111;-62
2021/11/10 06:47:02;;;;;;;20.08;6.38;;;8.80;99.90;;;;;;6237131;22;20050;-63
2021/11/10 06:49:28;;;;;;;21.95;5.80;;;8.70;99.90;;;;;;6236815;22;20346;-62
2021/11/10 06:51:54;;;;;;;23.88;5.68;;;8.70;99.90;;;;;;6237378;22;20349;-63
2021/11/10 06:54:21;;;;;;;12.00;4.90;;;8.80;99.90;;;;;;6236485;22;20019;-67
2021/11/10 06:56:48;;;;;;;15.98;4.53;;;8.70;99.90;;;;;;6237755;22;20031;-62
2021/11/10 06:59:13;;;;;;;17.08;4.68;;;8.80;99.90;;;;;;6237327;22;20058;-62
2021/11/10 07:01:39;;;;;;;20.67;5.40;;;8.80;99.90;;;;;;6236327;22;20016;-64
2021/11/10 07:04:04;;;;;;;19.70;5.53;;;8.70;99.90;;;;;;6237512;22;20013;-62
2021/11/10 07:06:30;;;;;;;19.35;4.65;;;8.80;99.90;;;;;;6236865;22;20020;-63
2021/11/10 07:08:56;;;;;;;20.27;6.05;;;8.70;99.90;;;;;;6238737;22;20012;-62
2021/11/10 07:11:21;;;;;;;21.60;6.15;;;8.70;99.90;;;;;;6238703;22;20012;-62
2021/11/10 07:13:47;;;;;;;19.92;5.20;;;8.80;99.90;;;;;;6239320;22;20080;-61
2021/11/10 07:16:14;;;;;;;22.90;6.03;;;8.80;99.90;;;;;;6240048;22;20095;-62
2021/11/10 07:18:40;;;;;;;17.45;5.35;;;8.70;99.90;;;;;;6238824;22;20005;-62
2021/11/10 07:21:07;;;;;;;20.30;5.50;;;8.70;99.90;;;;;;6239779;22;20053;-62
2021/11/10 07:23:33;;;;;;;26.50;6.80;;;8.80;99.90;;;;;;6239459;22;20012;-62
2021/11/10 07:25:58;;;;;;;22.10;6.90;;;8.80;99.90;;;;;;6237288;23;20022;-63
2021/11/10 07:28:24;;;;;;;16.20;5.07;;;8.80;99.90;;;;;;6238862;22;20051;-63
2021/11/10 07:30:49;;;;;;;22.02;6.32;;;8.70;99.90;;;;;;6238111;22;20008;-62
2021/11/10 07:33:15;;;;;;;16.63;4.82;;;8.70;99.90;;;;;;6237341;22;20534;-62
2021/11/10 07:35:41;;;;;;;15.35;5.45;;;8.70;99.90;;;;;;6239430;22;20015;-62
2021/11/10 07:38:07;;;;;;;24.67;7.78;;;8.70;99.90;;;;;;6239918;22;20050;-62
2021/11/10 07:40:33;;;;;;;23.17;6.95;;;8.70;99.90;;;;;;6238980;22;20551;-62
2021/11/10 07:42:59;;;;;;;17.67;6.25;;;8.70;99.90;;;;;;6239549;22;20050;-62
2021/11/10 07:45:36;;;;;;;32.50;8.60;;;8.70;99.90;;;;;;6239070;22;20069;-62
2021/11/10 07:48:06;;;;;;;19.75;6.72;;;8.70;99.90;;;;;;6240154;22;20016;-63
2021/11/10 07:50:32;;;;;;;25.73;6.47;;;8.80;99.90;;;;;;6238557;22;20413;-62
2021/11/10 07:52:58;;;;;;;29.20;6.47;;;8.80;99.90;;;;;;6238788;22;20474;-62
2021/11/10 07:55:24;;;;;;;20.40;5.95;;;8.70;99.90;;;;;;6238421;22;20008;-61
2021/11/10 07:57:50;;;;;;;20.15;6.03;;;8.80;99.90;;;;;;6239288;22;20015;-62
2021/11/10 08:00:18;;;;;;;21.63;5.95;;;8.80;99.90;;;;;;6238379;22;20008;-63
2021/11/10 08:02:44;;;;;;;26.05;7.15;;;8.80;99.90;;;;;;6238645;22;20032;-63
2021/11/10 08:05:12;;;;;;;29.50;7.70;;;8.90;99.90;;;;;;6239300;22;20004;-62
2021/11/10 08:07:38;;;;;;;27.35;6.65;;;8.90;99.90;;;;;;6238025;22;20019;-62
2021/11/10 08:10:05;;;;;;;34.95;6.90;;;8.90;99.90;;;;;;6238938;22;20012;-62
2021/11/10 08:12:31;;;;;;;18.83;6.05;;;8.90;99.90;;;;;;6236198;22;20454;-62
2021/11/10 08:14:58;;;;;;;22.55;6.53;;;8.90;99.90;;;;;;6239290;22;20020;-62
2021/11/10 08:17:25;;;;;;;31.60;7.40;;;8.80;99.90;;;;;;6238395;22;20012;-63
2021/11/10 08:19:51;;;;;;;22.95;7.18;;;8.80;99.90;;;;;;6238953;22;20506;-62
2021/11/10 08:22:17;;;;;;;25.10;6.45;;;8.80;99.90;;;;;;6238006;22;20036;-63
2021/11/10 08:24:45;;;;;;;34.25;7.32;;;8.80;99.90;;;;;;6238196;22;20423;-62
2021/11/10 08:27:10;;;;;;;24.45;6.65;;;8.80;99.90;;;;;;6239571;22;20016;-62
2021/11/10 08:29:36;;;;;;;26.55;6.72;;;8.80;99.90;;;;;;6237544;22;20008;-64
2021/11/10 08:32:02;;;;;;;24.73;7.25;;;8.80;99.90;;;;;;6239182;22;20015;-62
2021/11/10 08:34:28;;;;;;;23.42;7.28;;;8.80;99.90;;;;;;6237296;22;20012;-63
2021/11/10 08:36:53;;;;;;;27.13;6.20;;;8.90;99.90;;;;;;6239114;22;20004;-64
2021/11/10 08:39:19;;;;;;;19.98;6.53;;;8.90;99.90;;;;;;6238451;22;20001;-62
2021/11/10 08:41:48;;;;;;;16.17;5.85;;;8.90;99.90;;;;;;6236528;22;20015;-62
2021/11/10 08:44:17;;;;;;;20.10;6.45;;;8.90;99.90;;;;;;6238922;22;20012;-62
2021/11/10 08:46:44;;;;;;;17.55;6.35;;;8.90;99.90;;;;;;6236406;22;20023;-63
2021/11/10 08:49:11;;;;;;;21.77;6.93;;;8.90;99.90;;;;;;6239112;22;20012;-63
2021/11/10 08:51:38;;;;;;;22.63;6.53;;;8.90;99.90;;;;;;6237565;22;20012;-63
2021/11/10 08:54:05;;;;;;;19.95;5.82;;;8.90;99.90;;;;;;6239064;22;20031;-62
2021/11/10 08:56:31;;;;;;;22.75;6.85;;;8.90;99.90;;;;;;6236094;22;20019;-62
2021/11/10 08:58:58;;;;;;;19.23;5.93;;;9.00;99.90;;;;;;6239866;22;20051;-63
2021/11/10 09:01:24;;;;;;;20.30;6.28;;;9.00;99.90;;;;;;6237110;22;20008;-63
2021/11/10 09:03:50;;;;;;;21.08;6.45;;;9.00;99.90;;;;;;6239435;22;20750;-62
2021/11/10 09:06:15;;;;;;;27.60;7.75;;;9.10;99.90;;;;;;6238766;22;20034;-62
2021/11/10 09:08:41;;;;;;;21.17;7.10;;;9.20;99.90;;;;;;6239277;22;20062;-61
2021/11/10 09:11:06;;;;;;;23.77;7.82;;;9.20;99.90;;;;;;6239105;22;20355;-62
2021/11/10 09:13:33;;;;;;;27.58;8.02;;;9.20;99.90;;;;;;6238244;22;20439;-63
2021/11/10 09:15:59;;;;;;;42.83;9.75;;;9.30;99.90;;;;;;6239563;22;20450;-63
2021/11/10 09:18:25;;;;;;;26.38;7.95;;;9.30;99.90;;;;;;6236305;22;20010;-63
2021/11/10 09:20:51;;;;;;;28.88;7.95;;;9.30;99.90;;;;;;6239737;22;20004;-63
2021/11/10 09:23:18;;;;;;;32.03;9.25;;;9.30;99.90;;;;;;6241300;22;20460;-63
2021/11/10 09:25:45;;;;;;;28.17;10.00;;;9.30;99.90;;;;;;6241430;22;20012;-63
2021/11/10 09:28:14;;;;;;;25.42;9.60;;;9.40;99.90;;;;;;6240042;22;20012;-63
2021/11/10 09:30:42;;;;;;;32.75;10.45;;;9.30;99.90;;;;;;6235230;22;20063;-64
2021/11/10 09:33:09;;;;;;;33.30;8.30;;;9.40;99.90;;;;;;6238437;22;20103;-63
2021/11/10 09:35:36;;;;;;;26.33;9.23;;;9.50;99.90;;;;;;6238068;22;20012;-64
2021/11/10 09:38:02;;;;;;;23.08;7.13;;;9.50;99.90;;;;;;6238334;22;20456;-65
2021/11/10 09:40:32;;;;;;;23.33;6.90;;;9.60;99.90;;;;;;6236900;22;20095;-65
2021/11/10 09:43:00;;;;;;;21.42;7.28;;;9.70;99.90;;;;;;6237671;22;20012;-62
2021/11/10 09:45:27;;;;;;;25.05;7.43;;;9.80;99.90;;;;;;6234377;22;20458;-64
2021/11/10 09:47:54;;;;;;;24.85;7.63;;;9.90;99.90;;;;;;6237550;22;20016;-62
2021/11/10 09:50:24;;;;;;;18.85;6.10;;;10.00;99.90;;;;;;6234958;22;20008;-63
2021/11/10 09:52:50;;;;;;;20.52;6.53;;;10.00;99.90;;;;;;6236640;22;20035;-62
2021/11/10 09:55:20;;;;;;;24.98;7.43;;;10.10;99.90;;;;;;6236121;22;20023;-62
2021/11/10 09:57:47;;;;;;;22.40;6.60;;;10.20;99.90;;;;;;6235587;22;21152;-63
2021/11/10 10:00:17;;;;;;;18.95;6.00;;;10.20;99.90;;;;;;6235755;22;20007;-63
2021/11/10 10:02:48;;;;;;;19.42;5.47;;;10.30;99.90;;;;;;6235577;22;20026;-62
2021/11/10 10:05:15;;;;;;;23.77;6.00;;;10.30;99.90;;;;;;6236747;22;20016;-62
2021/11/10 10:07:43;;;;;;;24.23;6.72;;;10.40;99.90;;;;;;6235399;22;20077;-63
2021/11/10 10:10:09;;;;;;;24.75;7.25;;;10.40;99.90;;;;;;6236412;22;20047;-67
2021/11/10 10:12:35;;;;;;;23.52;7.22;;;10.40;99.90;;;;;;6235415;22;20434;-62
2021/11/10 10:15:02;;;;;;;17.42;6.53;;;10.50;99.90;;;;;;6236843;22;20015;-64
2021/11/10 10:17:38;;;;;;;20.58;7.35;;;10.50;99.90;;;;;;6236424;22;20027;-63
2021/11/10 10:20:31;;;;;;;26.58;7.22;;;10.50;99.90;;;;;;6237905;22;20087;-62
2021/11/10 10:23:09;;;;;;;21.40;6.15;;;10.40;99.90;;;;;;6237051;22;20063;-62
2021/11/10 10:25:57;;;;;;;21.80;7.15;;;10.40;99.90;;;;;;6234547;22;20539;-62
2021/11/10 10:28:31;;;;;;;17.10;7.53;;;10.50;99.90;;;;;;6236986;22;20074;-64
2021/11/10 10:31:05;;;;;;;24.15;6.18;;;10.50;99.90;;;;;;6237594;22;20082;-62
2021/11/10 10:33:36;;;;;;;19.45;5.47;;;10.50;99.90;;;;;;6236613;22;20022;-61
2021/11/10 10:36:09;;;;;;;24.13;6.55;;;10.60;99.90;;;;;;6237699;22;20004;-62
2021/11/10 10:38:48;;;;;;;18.73;5.82;;;10.60;99.90;;;;;;6234682;22;20026;-63
2021/11/10 10:41:16;;;;;;;23.45;6.13;;;10.60;99.90;;;;;;6236794;22;20004;-62
2021/11/10 10:43:52;;;;;;;20.58;6.10;;;10.70;99.90;;;;;;6235069;22;20019;-62
2021/11/10 10:46:24;;;;;;;28.70;6.30;;;10.70;99.90;;;;;;6235265;22;20413;-62
2021/11/10 10:48:50;;;;;;;17.05;5.85;;;10.80;99.90;;;;;;6235767;22;20008;-63
2021/11/10 10:51:18;;;;;;;20.48;6.03;;;10.90;99.90;;;;;;6235174;22;20431;-63
2021/11/10 10:53:52;;;;;;;27.35;5.60;;;10.80;99.90;;;;;;6235386;22;20012;-62
2021/11/10 10:56:26;;;;;;;15.25;5.43;;;10.80;99.90;;;;;;6237537;22;20066;-62
2021/11/10 10:58:59;;;;;;;16.88;6.93;;;10.80;99.90;;;;;;6237137;22;20407;-62
2021/11/10 11:01:31;;;;;;;21.48;6.10;;;10.90;99.90;;;;;;6235254;22;20066;-63
2021/11/10 11:04:15;;;;;;;19.85;6.30;;;10.90;99.90;;;;;;6238317;22;20023;-62
2021/11/10 11:06:42;;;;;;;17.23;5.05;;;10.90;99.90;;;;;;6234941;22;20024;-62
2021/11/10 11:09:15;;;;;;;24.33;5.63;;;11.00;99.90;;;;;;6236035;22;20023;-62
2021/11/10 11:11:56;;;;;;;15.20;5.32;;;10.90;99.90;;;;;;6234883;23;20020;-62
2021/11/10 11:15:07;;;;;;;19.35;4.93;;;11.00;99.90;;;;;;6208345;23;20050;-64
2021/11/10 11:17:30;;;;;;;21.15;5.75;;;11.10;99.90;;;;;;6232296;23;20096;-63
2021/11/10 11:20:05;;;;;;;15.77;5.70;;;11.00;99.90;;;;;;6236430;22;20020;-62
2021/11/10 11:22:45;;;;;;;21.42;6.38;;;11.10;99.90;;;;;;6236031;23;20016;-62
2021/11/10 11:25:26;;;;;;;19.65;6.05;;;11.10;99.90;;;;;;6236298;23;20458;-62
2021/11/10 11:28:07;;;;;;;19.10;5.05;;;11.20;99.90;;;;;;6235880;22;20004;-63
2021/11/10 11:30:44;;;;;;;15.65;4.78;;;11.10;99.90;;;;;;6259447;22;20016;-63
2021/11/10 11:33:16;;;;;;;18.35;5.13;;;11.00;99.90;;;;;;6235876;22;20020;-63
2021/11/10 11:35:44;;;;;;;15.20;4.97;;;11.00;99.90;;;;;;6233963;22;20590;-61
2021/11/10 11:38:15;;;;;;;19.60;5.10;;;11.10;99.90;;;;;;6236111;22;20220;-62
2021/11/10 11:40:43;;;;;;;21.83;5.07;;;11.10;99.90;;;;;;6232388;22;20473;-62
2021/11/10 11:43:14;;;;;;;18.40;4.90;;;11.10;99.90;;;;;;6233423;22;20077;-62
2021/11/10 11:45:40;;;;;;;;;;;11.10;99.90;;;;;;6234353;22;20036;-63
2021/11/10 11:48:08;;;;;;;19.92;6.50;;;11.10;99.90;;;;;;6234751;22;19907;-61
2021/11/10 11:50:35;;;;;;;23.45;5.93;;;11.20;99.90;;;;;;6231458;22;20018;-62
2021/11/10 11:53:01;;;;;;;21.40;5.88;;;11.20;99.90;;;;;;6235176;22;20026;-63
2021/11/10 11:55:37;;;;;;;13.13;4.63;;;11.20;99.90;;;;;;6233231;22;20095;-64
2021/11/10 11:58:08;;;;;;;18.60;4.68;;;11.10;99.90;;;;;;6238226;22;20027;-61
2021/11/10 12:00:40;;;;;;;20.15;5.38;;;11.20;99.90;;;;;;6232530;22;20054;-61
2021/11/10 12:03:23;;;;;;;20.05;5.63;;;11.10;99.90;;;;;;6233167;22;20016;-61
2021/11/10 12:06:08;;;;;;;17.88;5.25;;;11.10;99.90;;;;;;6235761;22;20015;-62
2021/11/10 12:08:41;;;;;;;14.90;4.93;;;11.10;99.90;;;;;;6235421;22;20016;-63
2021/11/10 12:11:19;;;;;;;20.65;5.65;;;11.10;99.90;;;;;;6232569;22;20033;-63
2021/11/10 12:14:15;;;;;;;14.38;4.60;;;11.20;99.90;;;;;;6234792;22;20012;-62
2021/11/10 12:17:02;;;;;;;16.02;5.35;;;11.20;99.90;;;;;;6232818;22;20062;-62
2021/11/10 12:19:37;;;;;;;17.60;5.15;;;11.20;99.90;;;;;;6232873;22;20098;-63
2021/11/10 12:22:18;;;;;;;15.25;4.10;;;11.20;99.90;;;;;;6234289;23;20269;-62
2021/11/10 12:24:48;;;;;;;15.95;5.50;;;11.10;99.90;;;;;;6234980;22;20015;-62
2021/11/10 12:27:32;;;;;;;12.18;4.63;;;11.20;99.90;;;;;;6236932;22;20346;-61
2021/11/10 12:30:02;;;;;;;15.50;4.93;;;11.10;99.90;;;;;;6235071;22;20011;-62
2021/11/10 12:32:34;;;;;;;19.25;5.53;;;11.10;99.90;;;;;;6234623;22;20026;-62
2021/11/10 12:35:02;;;;;;;15.90;5.80;;;11.10;99.90;;;;;;6235902;23;20027;-62
2021/11/10 12:37:37;;;;;;;13.93;4.90;;;11.10;99.90;;;;;;6237222;22;20008;-63
2021/11/10 12:40:21;;;;;;;16.88;4.53;;;11.10;99.90;;;;;;6237038;22;20008;-62
2021/11/10 12:43:09;;;;;;;20.35;5.90;;;11.10;99.90;;;;;;6235621;22;20723;-62
2021/11/10 12:45:41;;;;;;;17.70;4.78;;;11.10;99.90;;;;;;6236731;22;20020;-61
2021/11/10 12:48:10;;;;;;;16.88;5.80;;;11.10;99.90;;;;;;6237589;22;20042;-62
2021/11/10 12:50:38;;;;;;;16.55;5.13;;;11.10;99.90;;;;;;6235978;22;20036;-62